Kezdőlap
METAR-TAF:

METAR-TAF

Repülőterek :

Lake Havasu City, Arizona, Amerikai Egyesült Államok

földrajzi szélesség: 34-34-16N, földrajzi hosszúság: 114-21-30W, magasság: 239 m

Jelenlegi meteorológiai megfigyelések

A jelentés 38 perccel ezelõtt készült, 04:55 UTC
Kelet-délkeleti szél 6 kt
Hőmérséklet 38°C
Páratartalom 9%
Légköri nyomás 1004 hPa
Látótávolság: 16.1 km

METAR: KHII 220455Z AUTO 11006KT 10SM 38/M01 A2966 RMK AO1

Idő: 22:33 (05:33 UTC)


TAF: hiányzik

Meteorológiai megfigyelések és előrejelzések több, mint 4000 repülőtéren (METAR és TAF jelentéseket).

A térképen piros és sárga pontok jelzik az elérhető meteorológiai állomásokat.

Mozgassa az egeret a pont fölött, hogy megjelenjen az állomás neve.

Azután kattintson az időjárási megfigyelések és előrejelzések megtekintéséhez.

A térkép megváltoztatása: kattintson a fekete keresztel jelölt zöld gombra ráközelítéshez, a vonallal jelölt zöld gombra távolításhoz, vagy a zöld nyilakra a szomszédos térképek eléréséhez.


METAR-TAF: